Time;durP1;ratioP1;P1;durP2;ratioP2;P2;SDS_P1;SDS_P2;PMS_P1;PMS_P2;Temp;Humidity;BMP_temperature;BMP_pressure;BME280_temperature;BME280_humidity;BME280_pressure;Samples;Min_cycle;Max_cycle;Signal;HPM_P1;HPM_P2
2021/06/15 00:02:09;;;;;;;37.53;24.85;;;21.70;99.90;;;;;;5107831;28;20173;-63
2021/06/15 00:04:35;;;;;;;38.47;23.15;;;21.70;99.90;;;;;;5126109;28;20214;-62
2021/06/15 00:07:01;;;;;;;37.45;24.17;;;21.60;99.90;;;;;;5123285;28;20175;-63
2021/06/15 00:09:26;;;;;;;48.10;26.25;;;21.70;99.90;;;;;;5126251;28;20182;-63
2021/06/15 00:11:52;;;;;;;34.80;24.00;;;21.60;99.90;;;;;;5125695;28;20256;-62
2021/06/15 00:14:18;;;;;;;35.25;25.52;;;21.40;99.90;;;;;;5126301;28;20285;-62
2021/06/15 00:16:43;;;;;;;39.65;25.17;;;21.30;99.90;;;;;;5123516;28;20254;-63
2021/06/15 00:19:09;;;;;;;40.03;26.90;;;21.20;99.90;;;;;;5126022;28;20167;-62
2021/06/15 00:21:35;;;;;;;44.38;26.23;;;21.10;99.90;;;;;;5126126;28;20155;-62
2021/06/15 00:24:00;;;;;;;41.47;27.38;;;21.30;99.90;;;;;;5126258;28;20159;-63
2021/06/15 00:26:26;;;;;;;50.05;31.50;;;21.30;99.90;;;;;;5121801;28;20521;-62
2021/06/15 00:28:53;;;;;;;48.38;33.10;;;21.80;99.90;;;;;;5125992;28;20481;-62
2021/06/15 00:31:19;;;;;;;46.20;32.13;;;21.70;99.90;;;;;;5126020;28;20178;-62
2021/06/15 00:33:44;;;;;;;53.58;31.67;;;21.40;99.90;;;;;;5126049;28;20210;-63
2021/06/15 00:36:10;;;;;;;49.53;30.25;;;21.30;99.90;;;;;;5123009;28;20219;-63
2021/06/15 00:38:36;;;;;;;52.03;32.28;;;21.30;99.90;;;;;;5107372;28;20166;-62
2021/06/15 00:41:01;;;;;;;46.20;28.92;;;21.30;99.90;;;;;;5127295;28;20159;-62
2021/06/15 00:43:27;;;;;;;43.58;29.67;;;21.20;99.90;;;;;;5129934;28;20183;-62
2021/06/15 00:45:53;;;;;;;42.97;29.15;;;21.30;99.90;;;;;;5129221;28;20707;-62
2021/06/15 00:48:32;;;;;;;51.70;29.52;;;21.50;99.90;;;;;;5127641;28;20227;-62
2021/06/15 00:50:59;;;;;;;48.97;28.65;;;21.80;99.90;;;;;;5129625;28;20159;-62
2021/06/15 00:53:25;;;;;;;44.03;29.70;;;21.70;99.90;;;;;;5129712;28;20241;-62
2021/06/15 00:55:53;;;;;;;49.65;33.00;;;21.60;99.90;;;;;;5128714;28;20159;-63
2021/06/15 00:58:20;;;;;;;48.55;31.25;;;21.10;99.90;;;;;;5127412;28;20162;-63
2021/06/15 01:00:46;;;;;;;48.70;32.00;;;20.80;99.90;;;;;;5129467;28;20190;-63
2021/06/15 01:03:12;;;;;;;53.75;35.30;;;20.60;99.90;;;;;;5129306;28;20150;-62
2021/06/15 01:05:39;;;;;;;49.97;33.42;;;20.70;99.90;;;;;;5129432;28;20210;-62
2021/06/15 01:08:31;;;;;;;50.10;33.10;;;20.60;99.90;;;;;;5126389;28;20199;-62
2021/06/15 01:11:12;;;;;;;45.35;32.33;;;20.50;99.90;;;;;;5109659;28;20239;-62
2021/06/15 01:13:50;;;;;;;47.78;33.47;;;20.70;99.90;;;;;;5110693;28;20198;-62
2021/06/15 01:16:43;;;;;;;53.95;35.97;;;20.80;99.90;;;;;;5126320;28;20163;-62
2021/06/15 01:19:21;;;;;;;56.78;36.80;;;20.70;99.90;;;;;;5110617;28;20534;-62
2021/06/15 01:22:28;;;;;;;58.28;36.78;;;20.60;99.90;;;;;;5128816;28;20531;-62
2021/06/15 01:25:14;;;;;;;53.15;36.05;;;20.60;99.90;;;;;;5100217;28;20193;-62
2021/06/15 01:27:52;;;;;;;53.90;36.65;;;20.40;99.90;;;;;;5073701;28;20276;-62
2021/06/15 01:30:22;;;;;;;59.10;40.15;;;20.40;99.90;;;;;;5111172;28;20200;-63
2021/06/15 01:33:02;;;;;;;59.08;40.83;;;20.50;99.90;;;;;;5128778;28;20154;-62
2021/06/15 01:35:29;;;;;;;62.67;40.50;;;20.90;99.90;;;;;;5128956;28;20206;-63
2021/06/15 01:38:05;;;;;;;59.60;39.40;;;20.80;99.90;;;;;;5126093;28;20250;-62
2021/06/15 01:40:42;;;;;;;63.05;39.53;;;20.90;99.90;;;;;;5128619;28;20163;-63
2021/06/15 01:43:32;;;;;;;60.20;41.05;;;20.50;99.90;;;;;;5128085;28;20163;-63
2021/06/15 01:46:02;;;;;;;61.28;40.25;;;20.50;99.90;;;;;;5127689;28;20584;-63
2021/06/15 01:48:58;;;;;;;59.72;39.55;;;20.40;99.90;;;;;;5127533;28;20309;-62
2021/06/15 01:51:25;;;;;;;63.15;39.63;;;20.40;99.90;;;;;;5126455;28;20177;-63
2021/06/15 01:54:11;;;;;;;64.07;39.83;;;20.30;99.90;;;;;;5128517;28;20189;-63
2021/06/15 01:56:40;;;;;;;60.80;41.67;;;20.40;99.90;;;;;;5124448;28;20166;-63
2021/06/15 01:59:08;;;;;;;61.80;41.63;;;20.20;99.90;;;;;;5127750;28;20151;-63
2021/06/15 02:01:39;;;;;;;66.22;45.03;;;20.20;99.90;;;;;;5109562;28;20643;-63
2021/06/15 02:04:05;;;;;;;64.07;44.97;;;20.20;99.90;;;;;;5109869;28;20211;-63
2021/06/15 02:06:33;;;;;;;74.03;47.85;;;20.20;99.90;;;;;;5125373;28;20218;-63
2021/06/15 02:09:03;;;;;;;72.07;45.22;;;20.10;99.90;;;;;;5128369;28;20647;-63
2021/06/15 02:11:30;;;;;;;68.28;46.45;;;20.10;99.90;;;;;;5127726;28;20170;-63
2021/06/15 02:14:01;;;;;;;65.75;43.88;;;20.10;99.90;;;;;;5109509;28;20221;-63
2021/06/15 02:16:29;;;;;;;72.03;46.22;;;20.10;99.90;;;;;;5125316;28;20215;-63
2021/06/15 02:18:56;;;;;;;65.97;44.95;;;20.10;99.90;;;;;;5127929;28;20162;-63
2021/06/15 02:21:26;;;;;;;69.80;45.63;;;20.10;99.90;;;;;;5127965;28;20159;-64
2021/06/15 02:23:58;;;;;;;68.75;46.17;;;20.10;99.90;;;;;;5127902;28;20395;-63
2021/06/15 02:26:25;;;;;;;64.40;45.17;;;19.80;99.90;;;;;;5125005;28;20695;-63
2021/06/15 02:28:51;;;;;;;70.57;47.17;;;19.80;99.90;;;;;;5127917;28;20159;-63
2021/06/15 02:31:22;;;;;;;70.15;47.67;;;19.70;99.90;;;;;;5127843;28;20159;-63
2021/06/15 02:33:52;;;;;;;73.22;49.17;;;19.70;99.90;;;;;;5127717;28;20198;-62
2021/06/15 02:36:34;;;;;;;72.50;49.78;;;19.90;99.90;;;;;;5106764;28;20288;-62
2021/06/15 02:39:06;;;;;;;74.47;50.70;;;20.00;99.90;;;;;;5127706;28;20166;-63
2021/06/15 02:41:36;;;;;;;83.60;49.20;;;20.00;99.90;;;;;;5127429;28;20166;-63
2021/06/15 02:44:04;;;;;;;69.07;48.97;;;19.90;99.90;;;;;;5127625;28;20170;-63
2021/06/15 02:46:33;;;;;;;80.43;50.78;;;19.80;99.90;;;;;;5124812;28;20178;-63
2021/06/15 02:49:01;;;;;;;85.53;51.85;;;19.70;99.90;;;;;;5127452;28;20500;-63
2021/06/15 02:51:32;;;;;;;74.53;53.60;;;19.80;99.90;;;;;;5127597;28;20222;-63
2021/06/15 02:54:23;;;;;;;76.95;53.50;;;20.10;99.90;;;;;;5127387;28;20182;-62
2021/06/15 02:56:51;;;;;;;75.65;51.40;;;20.00;99.90;;;;;;5106001;28;20674;-63
2021/06/15 02:59:18;;;;;;;86.38;56.63;;;19.90;99.90;;;;;;5127456;28;20162;-63
2021/06/15 03:01:46;;;;;;;74.78;51.28;;;20.10;99.90;;;;;;5127308;28;20163;-63
2021/06/15 03:04:11;;;;;;;76.20;51.67;;;19.90;99.90;;;;;;5126575;28;20245;-63
2021/06/15 03:06:37;;;;;;;80.18;52.92;;;19.70;99.90;;;;;;5124409;28;20163;-63
2021/06/15 03:09:03;;;;;;;80.80;52.05;;;19.70;99.90;;;;;;5127044;28;20167;-63
2021/06/15 03:11:32;;;;;;;81.82;50.17;;;19.70;99.90;;;;;;5126762;28;20171;-63
2021/06/15 03:14:21;;;;;;;72.78;47.92;;;19.70;99.90;;;;;;5127091;28;20224;-63
2021/06/15 03:16:48;;;;;;;68.93;46.25;;;19.60;99.90;;;;;;5124240;28;20691;-63
2021/06/15 03:19:25;;;;;;;63.50;44.00;;;19.60;99.90;;;;;;5127154;28;20166;-63
2021/06/15 03:21:59;;;;;;;68.82;45.40;;;19.50;99.90;;;;;;5126800;28;20185;-63
2021/06/15 03:24:27;;;;;;;72.53;45.03;;;19.60;99.90;;;;;;5127042;28;20569;-63
2021/06/15 03:26:58;;;;;;;68.97;44.22;;;19.50;99.90;;;;;;5105239;28;20185;-63
2021/06/15 03:29:28;;;;;;;64.78;44.55;;;19.50;99.90;;;;;;5126835;28;20158;-62
2021/06/15 03:31:59;;;;;;;71.47;44.15;;;19.50;99.90;;;;;;5126605;28;20155;-63
2021/06/15 03:34:28;;;;;;;68.85;43.30;;;19.50;99.90;;;;;;5126779;28;20191;-63
2021/06/15 03:36:57;;;;;;;74.13;46.60;;;19.70;99.90;;;;;;5123797;28;20216;-63
2021/06/15 03:39:24;;;;;;;73.93;44.03;;;19.60;99.90;;;;;;5126690;28;20532;-63
2021/06/15 03:41:56;;;;;;;65.97;41.95;;;19.60;99.90;;;;;;5126273;28;20249;-63
2021/06/15 03:44:23;;;;;;;64.68;42.30;;;19.50;99.90;;;;;;5126610;28;20163;-63
2021/06/15 03:46:53;;;;;;;66.22;42.45;;;19.60;99.90;;;;;;5123832;28;20181;-63
2021/06/15 03:49:22;;;;;;;61.00;40.60;;;19.60;99.90;;;;;;5126711;28;20179;-63
2021/06/15 03:51:57;;;;;;;57.97;38.67;;;19.50;99.90;;;;;;5126534;28;20188;-63
2021/06/15 03:54:26;;;;;;;60.47;38.63;;;19.50;99.90;;;;;;5126483;28;20194;-63
2021/06/15 03:56:55;;;;;;;54.70;37.35;;;19.60;99.90;;;;;;5123476;28;20163;-63
2021/06/15 03:59:26;;;;;;;58.80;39.22;;;19.60;99.90;;;;;;5126630;28;20180;-63
2021/06/15 04:01:55;;;;;;;56.72;39.17;;;19.60;99.90;;;;;;5107756;28;20546;-63
2021/06/15 04:04:22;;;;;;;59.08;38.92;;;19.60;99.90;;;;;;5126249;28;20298;-63
2021/06/15 04:06:54;;;;;;;62.67;40.95;;;19.50;99.90;;;;;;5123407;28;20166;-63
2021/06/15 04:09:25;;;;;;;64.60;38.85;;;19.60;99.90;;;;;;5126463;28;20535;-63
2021/06/15 04:11:54;;;;;;;54.75;36.75;;;19.70;99.90;;;;;;5108280;28;20203;-63
2021/06/15 04:14:20;;;;;;;53.65;35.58;;;19.70;99.90;;;;;;5126305;28;20190;-63
2021/06/15 04:16:47;;;;;;;56.90;35.08;;;19.70;99.90;;;;;;5126669;28;20179;-63
2021/06/15 04:19:20;;;;;;;48.08;32.83;;;19.60;99.90;;;;;;5130448;28;20151;-63
2021/06/15 04:21:47;;;;;;;53.10;31.90;;;19.60;99.90;;;;;;5130323;28;20151;-63
2021/06/15 04:24:18;;;;;;;44.65;30.67;;;19.90;99.90;;;;;;5130205;28;20170;-63
2021/06/15 04:26:44;;;;;;;50.83;30.08;;;20.00;99.90;;;;;;5127434;28;20185;-63
2021/06/15 04:29:10;;;;;;;46.45;30.02;;;19.90;99.90;;;;;;5130199;28;20162;-63
2021/06/15 04:31:39;;;;;;;39.25;28.77;;;19.90;99.90;;;;;;5111660;28;20174;-63
2021/06/15 04:34:07;;;;;;;45.28;29.15;;;19.90;99.90;;;;;;5129985;28;20183;-63
2021/06/15 04:36:34;;;;;;;43.03;28.02;;;19.90;99.90;;;;;;5127139;28;20457;-63
2021/06/15 04:39:12;;;;;;;41.88;25.92;;;20.00;99.90;;;;;;5111572;28;20166;-63
2021/06/15 04:42:03;;;;;;;35.97;24.73;;;20.00;99.90;;;;;;5111332;28;20182;-63
2021/06/15 04:44:32;;;;;;;35.47;25.75;;;20.10;99.90;;;;;;5116219;28;20234;-63
2021/06/15 04:47:22;;;;;;;37.60;25.10;;;20.20;99.90;;;;;;5126984;28;20267;-63
2021/06/15 04:49:56;;;;;;;35.08;25.08;;;20.30;99.90;;;;;;5129963;28;20165;-63
2021/06/15 04:52:25;;;;;;;36.58;24.83;;;20.30;99.90;;;;;;5129485;28;20166;-63
2021/06/15 04:54:53;;;;;;;34.10;23.85;;;20.30;99.90;;;;;;5129466;28;20220;-63
2021/06/15 04:57:26;;;;;;;30.20;22.85;;;20.30;99.90;;;;;;5126571;28;20174;-63
2021/06/15 04:59:56;;;;;;;34.63;22.80;;;20.40;99.90;;;;;;5129457;28;20158;-63
2021/06/15 05:02:24;;;;;;;31.83;23.42;;;20.40;99.90;;;;;;5129578;28;20254;-63
2021/06/15 05:04:52;;;;;;;37.92;21.90;;;20.60;99.90;;;;;;5129245;28;20206;-63
2021/06/15 05:07:19;;;;;;;35.83;22.58;;;20.80;99.90;;;;;;5126478;28;20175;-63
2021/06/15 05:09:56;;;;;;;33.03;21.20;;;20.80;99.90;;;;;;5129462;28;20166;-63
2021/06/15 05:12:23;;;;;;;28.85;21.30;;;20.70;99.90;;;;;;5128981;28;20686;-63
2021/06/15 05:14:49;;;;;;;33.45;22.02;;;20.70;99.90;;;;;;5129049;28;20261;-63
2021/06/15 05:17:20;;;;;;;28.92;20.35;;;20.80;99.90;;;;;;5126315;28;20249;-63
2021/06/15 05:19:46;;;;;;;29.23;19.23;;;20.80;99.90;;;;;;5129209;28;20151;-63
2021/06/15 05:22:25;;;;;;;32.97;19.85;;;20.80;99.90;;;;;;5093626;28;20191;-63
2021/06/15 05:24:52;;;;;;;31.73;17.92;;;20.80;99.90;;;;;;5128797;28;20182;-63
2021/06/15 05:27:23;;;;;;;38.47;18.77;;;20.80;99.90;;;;;;5107183;28;20246;-67
2021/06/15 05:29:49;;;;;;;24.90;17.75;;;20.90;99.90;;;;;;5110590;28;20192;-63
2021/06/15 05:32:15;;;;;;;24.35;17.10;;;20.90;99.90;;;;;;5127827;28;20170;-63
2021/06/15 05:34:41;;;;;;;24.20;18.30;;;20.90;99.90;;;;;;5128592;28;20279;-63
2021/06/15 05:37:07;;;;;;;22.83;17.30;;;21.00;99.90;;;;;;5125921;28;20177;-63
2021/06/15 05:39:34;;;;;;;23.50;16.10;;;21.10;99.90;;;;;;5110692;28;20166;-63
2021/06/15 05:42:00;;;;;;;29.77;16.45;;;21.20;99.90;;;;;;5128402;28;20163;-63
2021/06/15 05:44:26;;;;;;;27.67;17.15;;;21.10;99.90;;;;;;5128845;28;20194;-63
2021/06/15 05:46:52;;;;;;;17.73;15.77;;;21.20;99.90;;;;;;5126222;28;20162;-64
2021/06/15 05:49:17;;;;;;;24.75;14.95;;;21.10;99.90;;;;;;5128694;28;20161;-63
2021/06/15 05:51:43;;;;;;;26.60;16.23;;;21.20;99.90;;;;;;5128430;28;20162;-63
2021/06/15 05:54:08;;;;;;;25.30;15.93;;;21.30;99.90;;;;;;5128302;28;20189;-63
2021/06/15 05:56:34;;;;;;;26.55;15.18;;;21.40;99.90;;;;;;5126195;28;20171;-63
2021/06/15 05:59:00;;;;;;;23.27;16.23;;;21.60;99.90;;;;;;5128343;28;20181;-63
2021/06/15 06:01:26;;;;;;;18.05;15.23;;;21.80;99.90;;;;;;5127949;28;20159;-63
2021/06/15 06:04:05;;;;;;;22.70;15.43;;;21.80;99.90;;;;;;5128124;28;20248;-63
2021/06/15 06:09:15;;;;;;;21.77;14.75;;;22.00;99.90;;;;;;5128396;28;20228;-63
2021/06/15 06:11:42;;;;;;;22.27;14.57;;;22.10;99.90;;;;;;5128095;28;20602;-63
2021/06/15 06:14:07;;;;;;;20.80;13.52;;;22.30;99.90;;;;;;5109751;28;20214;-63
2021/06/15 06:16:34;;;;;;;20.02;13.70;;;22.20;99.90;;;;;;5125754;28;20188;-63
2021/06/15 06:19:02;;;;;;;20.45;13.45;;;22.20;99.90;;;;;;5127632;28;20222;-63
2021/06/15 06:21:30;;;;;;;20.88;13.75;;;22.20;99.90;;;;;;5128172;28;20169;-63
2021/06/15 06:23:55;;;;;;;17.15;13.00;;;22.20;99.90;;;;;;5127723;28;20704;-63
2021/06/15 06:26:21;;;;;;;14.90;12.68;;;22.30;99.90;;;;;;5125487;28;20234;-63
2021/06/15 06:28:47;;;;;;;18.50;11.65;;;22.40;99.90;;;;;;5127358;28;20166;-63
2021/06/15 06:31:12;;;;;;;18.90;12.85;;;22.50;99.90;;;;;;5127254;28;20166;-63
2021/06/15 06:33:38;;;;;;;17.08;12.23;;;22.60;99.90;;;;;;5127472;28;20199;-63
2021/06/15 06:36:04;;;;;;;13.88;11.20;;;22.70;99.90;;;;;;5125752;28;20189;-63
2021/06/15 06:38:29;;;;;;;14.27;10.77;;;22.60;99.90;;;;;;5125539;28;20175;-64
2021/06/15 06:40:55;;;;;;;16.23;11.45;;;22.70;99.90;;;;;;5127444;28;20195;-63
2021/06/15 06:43:20;;;;;;;28.17;11.98;;;22.80;99.90;;;;;;5127205;28;20169;-63
2021/06/15 06:45:46;;;;;;;22.25;12.35;;;22.80;99.90;;;;;;5127291;28;20159;-63
2021/06/15 06:48:12;;;;;;;11.90;10.70;;;22.80;99.90;;;;;;5124422;28;20174;-63
2021/06/15 06:50:38;;;;;;;15.30;10.63;;;22.90;99.90;;;;;;5127321;28;20159;-63
2021/06/15 06:53:04;;;;;;;19.42;10.20;;;22.90;99.90;;;;;;5126694;28;20216;-63
2021/06/15 06:55:30;;;;;;;13.00;9.82;;;23.10;99.90;;;;;;5127048;28;20301;-63
2021/06/15 06:57:56;;;;;;;13.43;10.75;;;23.30;99.90;;;;;;5123871;28;20193;-63
2021/06/15 07:00:22;;;;;;;18.83;10.02;;;23.60;99.90;;;;;;5127187;28;20163;-63
2021/06/15 07:02:48;;;;;;;14.77;8.93;;;23.60;99.90;;;;;;5127068;28;20233;-63
2021/06/15 07:05:15;;;;;;;10.10;8.02;;;23.50;99.90;;;;;;5127015;28;20202;-63
2021/06/15 07:07:40;;;;;;;14.07;8.43;;;23.50;99.90;;;;;;5124134;28;20181;-63
2021/06/15 07:10:07;;;;;;;10.57;8.18;;;23.60;99.90;;;;;;5126962;28;20225;-62
2021/06/15 07:12:33;;;;;;;8.02;7.32;;;23.70;99.90;;;;;;5126308;28;20171;-62
2021/06/15 07:14:58;;;;;;;15.18;8.20;;;23.60;99.90;;;;;;5126442;28;20195;-63
2021/06/15 07:17:24;;;;;;;8.98;6.68;;;23.90;99.90;;;;;;5123930;28;20170;-63
2021/06/15 07:19:50;;;;;;;9.90;7.28;;;23.90;99.90;;;;;;5126587;28;20166;-62
2021/06/15 07:22:16;;;;;;;15.38;7.07;;;24.00;99.90;;;;;;5126656;28;20168;-63
2021/06/15 07:24:42;;;;;;;13.25;6.97;;;24.10;99.90;;;;;;5108755;28;20229;-63
2021/06/15 07:27:08;;;;;;;8.13;6.35;;;24.40;99.90;;;;;;5123362;28;20189;-63
2021/06/15 07:29:33;;;;;;;13.82;7.10;;;24.40;99.90;;;;;;5126583;28;20174;-63
2021/06/15 07:31:59;;;;;;;15.32;6.45;;;24.50;99.90;;;;;;5108290;28;20210;-62
2021/06/15 07:34:25;;;;;;;11.70;6.68;;;24.60;99.90;;;;;;5126546;28;20214;-63
2021/06/15 07:36:51;;;;;;;11.63;6.53;;;24.90;99.90;;;;;;5123910;28;20164;-63
2021/06/15 07:39:17;;;;;;;6.82;5.20;;;25.20;99.90;;;;;;5126829;28;20174;-63
2021/06/15 07:41:43;;;;;;;8.70;5.53;;;25.30;99.90;;;;;;5126108;28;20177;-63
2021/06/15 07:44:08;;;;;;;8.38;7.15;;;25.30;99.90;;;;;;5126555;28;20605;-63
2021/06/15 07:46:34;;;;;;;7.22;6.47;;;25.30;99.90;;;;;;5123889;28;20224;-63
2021/06/15 07:49:00;;;;;;;8.60;5.88;;;25.40;99.90;;;;;;5125899;28;20181;-63
2021/06/15 07:51:26;;;;;;;12.20;5.75;;;25.40;99.90;;;;;;5126401;28;20159;-63
2021/06/15 07:53:51;;;;;;;10.93;6.00;;;25.50;99.90;;;;;;5125994;28;20220;-63
2021/06/15 07:56:17;;;;;;;8.90;5.05;;;25.60;99.90;;;;;;5123518;28;20161;-63
2021/06/15 07:58:43;;;;;;;7.35;4.90;;;25.60;99.90;;;;;;5107811;28;20159;-64
2021/06/15 08:01:09;;;;;;;8.68;4.53;;;25.50;99.90;;;;;;5107997;28;20400;-63
2021/06/15 08:03:34;;;;;;;6.40;4.05;;;25.30;99.90;;;;;;5126127;28;20228;-62
2021/06/15 08:06:00;;;;;;;3.63;3.13;;;25.20;99.90;;;;;;5106655;28;20170;-62
2021/06/15 08:08:26;;;;;;;6.60;3.92;;;25.20;99.90;;;;;;5125014;28;20169;-62
2021/06/15 08:10:52;;;;;;;5.85;3.47;;;25.10;99.90;;;;;;5126237;28;20198;-62
2021/06/15 08:13:17;;;;;;;4.60;3.60;;;24.90;99.90;;;;;;5125869;28;20163;-62
2021/06/15 08:15:45;;;;;;;9.88;4.50;;;25.00;99.90;;;;;;5107945;28;20198;-62
2021/06/15 08:18:11;;;;;;;7.95;4.05;;;25.30;99.90;;;;;;5123085;28;20230;-62
2021/06/15 08:20:36;;;;;;;5.07;3.28;;;25.40;99.90;;;;;;5126220;28;20159;-62
2021/06/15 08:23:03;;;;;;;10.93;2.88;;;25.50;99.90;;;;;;5125894;28;20178;-62
2021/06/15 08:25:28;;;;;;;3.22;2.78;;;25.80;99.90;;;;;;5126333;28;20159;-62
2021/06/15 08:27:54;;;;;;;5.15;2.70;;;25.90;99.90;;;;;;5122908;28;20261;-63
2021/06/15 08:30:20;;;;;;;5.90;2.47;;;25.90;99.90;;;;;;5126121;28;20155;-62
2021/06/15 08:32:46;;;;;;;4.88;2.88;;;26.00;99.90;;;;;;5125901;28;20170;-62
2021/06/15 08:35:11;;;;;;;2.95;2.28;;;26.10;99.90;;;;;;5125787;28;20191;-62
2021/06/15 08:37:38;;;;;;;3.95;2.55;;;26.20;99.90;;;;;;5122912;28;20529;-62
2021/06/15 08:40:05;;;;;;;5.20;2.50;;;26.20;99.90;;;;;;5125947;28;20151;-62
2021/06/15 08:42:33;;;;;;;4.28;3.17;;;26.20;99.90;;;;;;5125496;28;20181;-63
2021/06/15 08:44:59;;;;;;;3.55;2.65;;;26.30;99.90;;;;;;5125931;28;20227;-63
2021/06/15 08:47:25;;;;;;;5.57;2.97;;;26.30;99.90;;;;;;5123189;28;20171;-63
2021/06/15 08:49:50;;;;;;;2.55;2.28;;;26.50;99.90;;;;;;5125675;28;20172;-63
2021/06/15 08:52:16;;;;;;;4.75;2.28;;;26.50;99.90;;;;;;5125899;28;20195;-63
2021/06/15 08:54:43;;;;;;;5.50;1.73;;;26.60;99.90;;;;;;5125844;28;20190;-63
2021/06/15 08:57:09;;;;;;;1.85;1.60;;;26.70;99.90;;;;;;5122511;28;20159;-62
2021/06/15 08:59:36;;;;;;;3.03;1.75;;;26.90;99.90;;;;;;5125923;28;20167;-63
2021/06/15 09:02:05;;;;;;;2.85;1.63;;;26.80;99.90;;;;;;5127133;28;20151;-62
2021/06/15 09:04:33;;;;;;;5.50;1.52;;;26.70;99.90;;;;;;5129326;28;20203;-63
2021/06/15 09:06:59;;;;;;;5.07;2.08;;;26.60;99.90;;;;;;5126654;28;20162;-63
2021/06/15 09:09:37;;;;;;;4.47;1.60;;;26.70;99.90;;;;;;5129131;28;20178;-63
2021/06/15 09:12:04;;;;;;;5.70;1.80;;;26.70;99.90;;;;;;5110649;28;20186;-62
2021/06/15 09:14:47;;;;;;;4.93;1.80;;;26.80;99.90;;;;;;5129364;28;20194;-64
2021/06/15 09:17:29;;;;;;;2.67;1.30;;;26.80;99.90;;;;;;5126213;28;20235;-63
2021/06/15 09:19:56;;;;;;;1.77;1.00;;;26.90;99.90;;;;;;5128969;28;20210;-63
2021/06/15 09:22:34;;;;;;;2.45;1.35;;;26.80;99.90;;;;;;5129103;28;20173;-63
2021/06/15 09:25:01;;;;;;;4.55;1.30;;;26.70;99.90;;;;;;5128905;28;20166;-63
2021/06/15 09:27:37;;;;;;;1.20;1.10;;;26.60;99.90;;;;;;5125902;28;20191;-64
2021/06/15 09:30:06;;;;;;;6.78;1.52;;;26.60;99.90;;;;;;5128641;28;20702;-63
2021/06/15 09:32:38;;;;;;;3.90;1.20;;;26.80;99.90;;;;;;5129170;28;20172;-63
2021/06/15 09:35:13;;;;;;;4.70;1.23;;;27.00;99.90;;;;;;5128663;28;20186;-61
2021/06/15 09:37:40;;;;;;;4.68;1.23;;;27.20;99.90;;;;;;5125905;28;20166;-61
2021/06/15 09:40:12;;;;;;;5.53;1.13;;;27.30;99.90;;;;;;5128540;28;20162;-61
2021/06/15 09:42:52;;;;;;;4.03;1.20;;;27.40;99.90;;;;;;5109816;28;20238;-62
2021/06/15 09:45:23;;;;;;;3.83;1.40;;;27.50;99.90;;;;;;5128522;28;20249;-63
2021/06/15 09:47:49;;;;;;;8.88;1.15;;;27.50;99.90;;;;;;5107093;28;20174;-63
2021/06/15 09:50:17;;;;;;;6.28;1.33;;;27.50;99.90;;;;;;5128639;28;20659;-62
2021/06/15 09:52:43;;;;;;;1.42;1.00;;;27.60;99.90;;;;;;5128480;28;20170;-62
2021/06/15 09:55:09;;;;;;;1.70;1.08;;;27.80;99.90;;;;;;5128344;28;20691;-63
2021/06/15 09:57:41;;;;;;;2.50;1.00;;;27.90;99.90;;;;;;5125436;28;20167;-62
2021/06/15 10:00:19;;;;;;;5.47;1.40;;;28.10;99.90;;;;;;5128414;28;20181;-63
2021/06/15 10:03:00;;;;;;;1.90;1.10;;;28.00;99.90;;;;;;5128135;28;20173;-62
2021/06/15 10:05:32;;;;;;;5.57;1.60;;;28.20;99.90;;;;;;5128141;28;20206;-62
2021/06/15 10:08:03;;;;;;;5.50;1.17;;;28.50;99.90;;;;;;5125170;28;20167;-62
2021/06/15 10:10:32;;;;;;;8.45;1.70;;;28.60;99.90;;;;;;5128203;28;20212;-62
2021/06/15 10:12:59;;;;;;;5.28;1.60;;;28.90;99.90;;;;;;5109238;28;20238;-62
2021/06/15 10:15:27;;;;;;;6.20;1.50;;;29.10;99.90;;;;;;5127922;28;20219;-63
2021/06/15 10:17:53;;;;;;;4.10;1.80;;;29.10;99.90;;;;;;5124860;28;20167;-63
2021/06/15 10:20:22;;;;;;;6.80;1.88;;;29.10;99.90;;;;;;5127879;28;20169;-62
2021/06/15 10:22:50;;;;;;;4.63;1.77;;;29.30;99.90;;;;;;5127718;28;20188;-62
2021/06/15 10:25:18;;;;;;;3.72;1.50;;;29.40;99.90;;;;;;5127690;28;20203;-63
2021/06/15 10:27:45;;;;;;;6.38;1.40;;;29.40;99.90;;;;;;5124146;28;20171;-63
2021/06/15 10:30:13;;;;;;;4.65;1.77;;;29.30;99.90;;;;;;5109057;28;20167;-62
2021/06/15 10:32:52;;;;;;;8.60;1.55;;;29.10;99.90;;;;;;5127669;28;20174;-62
2021/06/15 10:35:41;;;;;;;3.90;1.35;;;29.20;99.90;;;;;;5127036;28;20196;-62
2021/06/15 10:38:07;;;;;;;2.67;1.55;;;29.30;99.90;;;;;;5106008;28;20175;-62
2021/06/15 10:40:36;;;;;;;5.15;1.60;;;29.30;99.90;;;;;;5127292;28;20158;-62
2021/06/15 10:43:21;;;;;;;3.65;1.30;;;29.30;99.90;;;;;;5126918;28;20171;-62
2021/06/15 10:45:53;;;;;;;6.97;1.10;;;29.50;99.90;;;;;;5127501;28;20174;-63
2021/06/15 10:48:20;;;;;;;4.00;1.55;;;29.50;99.90;;;;;;5124905;28;20172;-62
2021/06/15 10:50:48;;;;;;;2.90;1.10;;;29.60;99.90;;;;;;5127256;28;20175;-62
2021/06/15 10:53:16;;;;;;;3.78;1.23;;;29.60;99.90;;;;;;5126523;28;20627;-62
2021/06/15 10:56:00;;;;;;;4.00;1.00;;;29.70;99.90;;;;;;5126503;28;20195;-62
2021/06/15 10:58:32;;;;;;;3.17;1.30;;;29.70;99.90;;;;;;5107081;28;20237;-62
2021/06/15 11:01:24;;;;;;;2.15;1.40;;;29.80;99.90;;;;;;5127044;28;20172;-62
2021/06/15 11:03:58;;;;;;;5.00;1.10;;;29.60;99.90;;;;;;5108203;28;20233;-62
2021/06/15 11:06:27;;;;;;;3.22;1.20;;;29.50;99.90;;;;;;5124575;28;20662;-62
2021/06/15 11:09:14;;;;;;;4.32;1.42;;;29.70;99.90;;;;;;5126607;28;20227;-62
2021/06/15 11:11:41;;;;;;;7.00;1.80;;;29.80;99.90;;;;;;5126684;28;20265;-63
2021/06/15 11:14:15;;;;;;;2.13;1.30;;;29.90;99.90;;;;;;5126753;28;20192;-62
2021/06/15 11:16:49;;;;;;;4.05;1.40;;;30.30;99.90;;;;;;5124410;28;20217;-62
2021/06/15 11:19:17;;;;;;;2.90;1.20;;;30.50;99.90;;;;;;5126653;28;20174;-63
2021/06/15 11:21:52;;;;;;;6.25;1.35;;;30.60;99.90;;;;;;5126817;28;20220;-63
2021/06/15 11:24:20;;;;;;;4.38;1.70;;;30.50;99.90;;;;;;5126288;28;20170;-63
2021/06/15 11:26:47;;;;;;;4.45;1.70;;;30.60;99.90;;;;;;5123949;28;20166;-62
2021/06/15 11:29:39;;;;;;;6.32;1.50;;;30.40;99.90;;;;;;5126035;28;20170;-63
2021/06/15 11:32:20;;;;;;;5.22;1.80;;;30.70;99.90;;;;;;5126355;28;20201;-63
2021/06/15 11:35:04;;;;;;;4.82;1.50;;;31.10;99.90;;;;;;5126473;28;20250;-63
2021/06/15 11:37:42;;;;;;;2.95;1.52;;;31.00;99.90;;;;;;5123924;28;20659;-62
2021/06/15 11:40:27;;;;;;;4.10;1.70;;;31.20;99.90;;;;;;5126188;28;20162;-62
2021/06/15 11:42:55;;;;;;;2.00;1.40;;;31.30;99.90;;;;;;5125755;28;20201;-63
2021/06/15 11:45:40;;;;;;;2.97;1.52;;;31.30;99.90;;;;;;5108371;28;20249;-63
2021/06/15 11:48:34;;;;;;;1.90;1.70;;;31.50;99.90;;;;;;5123522;28;20174;-63
2021/06/15 11:51:08;;;;;;;4.63;1.33;;;31.60;99.90;;;;;;5126405;28;20166;-62
2021/06/15 11:53:37;;;;;;;5.95;1.80;;;31.50;99.90;;;;;;5126279;28;20173;-62
2021/06/15 11:56:05;;;;;;;7.18;1.92;;;31.50;99.90;;;;;;5124707;28;20166;-63
2021/06/15 11:58:30;;;;;;;4.18;1.83;;;31.40;99.90;;;;;;5124781;28;20170;-62
2021/06/15 12:01:06;;;;;;;4.20;2.00;;;31.70;99.90;;;;;;5126106;28;20218;-62
2021/06/15 12:03:38;;;;;;;5.90;1.60;;;31.70;99.90;;;;;;5125943;28;20199;-62
2021/06/15 12:06:05;;;;;;;6.60;1.90;;;31.70;99.90;;;;;;5124444;28;20158;-62
2021/06/15 12:08:39;;;;;;;6.43;1.60;;;31.30;99.90;;;;;;5106873;28;20178;-62
2021/06/15 12:11:08;;;;;;;7.22;1.52;;;31.70;99.90;;;;;;5126186;28;20169;-62
2021/06/15 12:13:35;;;;;;;4.68;2.03;;;32.10;99.90;;;;;;5125858;28;20256;-62
2021/06/15 12:16:11;;;;;;;1.83;1.38;;;32.20;99.90;;;;;;5124605;28;20213;-62
2021/06/15 12:18:44;;;;;;;5.50;1.55;;;32.10;99.90;;;;;;5125400;28;20529;-62
2021/06/15 12:21:14;;;;;;;2.85;1.40;;;32.10;99.90;;;;;;5125832;28;20182;-62
2021/06/15 12:23:44;;;;;;;4.80;1.90;;;32.20;99.90;;;;;;5126043;28;20150;-62
2021/06/15 12:26:19;;;;;;;2.78;1.67;;;32.00;99.90;;;;;;5123712;28;20158;-63
2021/06/15 12:28:46;;;;;;;3.35;2.00;;;32.20;99.90;;;;;;5125580;28;20202;-62
2021/06/15 12:31:13;;;;;;;3.10;1.92;;;32.30;99.90;;;;;;5125820;28;20162;-62
2021/06/15 12:33:40;;;;;;;3.58;2.08;;;32.00;99.90;;;;;;5125774;28;20174;-62
2021/06/15 12:36:08;;;;;;;4.15;1.90;;;31.90;99.90;;;;;;5124060;28;20159;-62
2021/06/15 12:38:35;;;;;;;7.50;1.77;;;32.00;99.90;;;;;;5129430;28;20534;-61
2021/06/15 12:41:05;;;;;;;5.07;1.80;;;31.80;99.90;;;;;;5129789;28;20162;-62
2021/06/15 12:43:31;;;;;;;7.88;2.42;;;31.60;99.90;;;;;;5129203;28;20166;-62
2021/06/15 12:46:28;;;;;;;6.90;1.80;;;31.70;99.90;;;;;;5128526;28;20552;-62
2021/06/15 12:48:59;;;;;;;3.53;1.60;;;31.90;99.90;;;;;;5127814;28;20174;-61
2021/06/15 12:51:32;;;;;;;2.95;1.95;;;31.90;99.90;;;;;;5129704;28;20207;-62
2021/06/15 12:54:14;;;;;;;4.70;2.15;;;31.90;99.90;;;;;;5129418;28;20209;-62